createdAt,value
2017-10-16T00:01:32.792Z,14.060061999999999
2017-10-16T00:21:37.601Z,14.060061999999999
2017-10-16T00:41:42.752Z,14.060061999999999
2017-10-16T01:01:47.804Z,14.060061999999999
2017-10-16T01:21:53.296Z,14.060061999999999
2017-10-16T01:41:57.826Z,13.997584
2017-10-16T02:02:03.036Z,13.997584
2017-10-16T02:22:08.401Z,13.997584
2017-10-16T02:42:13.015Z,13.997584
2017-10-16T03:02:18.119Z,13.997584
2017-10-16T03:22:22.941Z,13.997584
2017-10-16T03:42:28.009Z,13.935105999999998
2017-10-16T04:02:33.768Z,13.935105999999998
2017-10-16T04:22:38.190Z,13.935105999999998
2017-10-16T04:42:43.252Z,13.935105999999998
2017-10-16T05:02:48.924Z,13.935105999999998
2017-10-16T05:42:58.410Z,13.872627999999999
2017-10-16T06:03:03.283Z,13.872627999999999
2017-10-16T06:23:08.437Z,13.872627999999999
2017-10-16T06:43:13.368Z,13.81015
2017-10-16T07:03:18.571Z,13.81015
2017-10-16T07:23:23.546Z,13.81015
2017-10-16T07:43:28.495Z,13.81015
2017-10-16T08:03:33.677Z,13.81015
2017-10-16T08:23:38.752Z,13.872627999999999
2017-10-16T08:43:43.743Z,13.872627999999999
2017-10-16T09:03:48.776Z,13.872627999999999
2017-10-16T09:23:54.168Z,13.872627999999999
2017-10-16T09:43:59.272Z,13.935105999999998
2017-10-16T10:04:03.775Z,13.935105999999998
2017-10-16T10:24:08.842Z,13.997584
2017-10-16T10:44:13.756Z,13.997584
2017-10-16T11:04:18.953Z,13.997584
2017-10-16T11:24:24.120Z,14.060061999999999
2017-10-16T11:44:28.919Z,14.060061999999999
2017-10-16T12:04:38.468Z,14.122539999999997
2017-10-16T12:24:38.931Z,14.122539999999997
2017-10-16T12:44:44.009Z,14.122539999999997
2017-10-16T13:04:49.057Z,14.185018
2017-10-16T13:24:54.113Z,14.185018
2017-10-16T13:44:59.130Z,14.122539999999997
2017-10-16T14:05:04.092Z,14.247495999999998
2017-10-16T14:25:09.328Z,14.247495999999998
2017-10-16T14:45:14.247Z,14.247495999999998
2017-10-16T15:05:20.023Z,14.247495999999998
2017-10-16T15:25:23.337Z,14.247495999999998
2017-10-16T15:45:28.740Z,14.247495999999998
2017-10-16T16:05:33.851Z,14.247495999999998
2017-10-16T16:25:38.498Z,14.247495999999998
2017-10-16T16:45:43.280Z,14.247495999999998
2017-10-16T17:05:48.331Z,14.247495999999998
2017-10-16T17:25:53.675Z,14.247495999999998
2017-10-16T17:45:58.548Z,14.247495999999998
2017-10-16T18:06:04.320Z,14.247495999999998
2017-10-16T18:26:08.485Z,14.247495999999998
2017-10-16T18:46:13.722Z,14.247495999999998
2017-10-16T19:26:23.940Z,14.247495999999998
2017-10-16T19:46:28.917Z,14.247495999999998
2017-10-16T20:06:34.274Z,14.247495999999998
2017-10-16T20:26:38.813Z,14.247495999999998
2017-10-16T20:46:44.617Z,14.185018
2017-10-16T21:06:48.828Z,14.247495999999998
2017-10-16T21:26:54.601Z,14.247495999999998
2017-10-16T21:46:59.132Z,14.185018
2017-10-16T22:07:04.245Z,14.185018
2017-10-16T22:27:08.954Z,14.185018
2017-10-16T22:47:14.257Z,14.185018
2017-10-16T23:07:19.022Z,14.185018
2017-10-16T23:27:24.245Z,14.185018
2017-10-16T23:47:29.176Z,14.185018
